createdAt,value
2022-10-03T00:01:59.499Z,62.80
2022-10-03T00:04:53.189Z,61.10
2022-10-03T00:09:00.395Z,60.40
2022-10-03T00:18:14.479Z,59.80
2022-10-03T00:21:02.712Z,60.10
2022-10-03T00:23:46.635Z,59.70
2022-10-03T00:26:30.879Z,60.20
2022-10-03T00:29:24.645Z,59.40
2022-10-03T00:32:13.143Z,58.80
2022-10-03T00:35:04.047Z,59.40
2022-10-03T00:37:41.985Z,60.00
2022-10-03T00:41:02.089Z,60.90
2022-10-03T00:44:38.229Z,60.70
2022-10-03T00:47:43.820Z,62.10
2022-10-03T00:50:34.721Z,62.70
2022-10-03T00:53:27.292Z,63.50
2022-10-03T00:56:21.752Z,63.60
2022-10-03T00:59:13.109Z,63.50
2022-10-03T01:06:33.377Z,61.90
2022-10-03T01:09:36.805Z,62.50
2022-10-03T01:12:40.908Z,63.20
2022-10-03T01:15:26.699Z,62.30
2022-10-03T01:18:15.263Z,61.30
2022-10-03T01:20:59.555Z,60.40
2022-10-03T01:24:06.689Z,60.00
2022-10-03T01:26:54.162Z,59.20
2022-10-03T01:30:00.426Z,59.10
2022-10-03T01:32:39.988Z,60.60
2022-10-03T01:35:23.942Z,60.30
2022-10-03T01:38:06.517Z,60.90
2022-10-03T01:40:44.191Z,60.60
2022-10-03T01:43:21.253Z,60.40
2022-10-03T01:46:07.472Z,59.70
2022-10-03T01:48:48.889Z,59.60
2022-10-03T01:51:24.182Z,60.70
2022-10-03T01:54:19.807Z,59.90
2022-10-03T01:56:59.552Z,62.10
2022-10-03T01:59:43.977Z,61.50
2022-10-03T02:02:28.856Z,60.80
2022-10-03T02:05:13.140Z,60.00
2022-10-03T02:07:52.836Z,59.80
2022-10-03T02:15:01.699Z,60.90
2022-10-03T02:17:54.417Z,59.90
2022-10-03T02:20:36.517Z,59.50
2022-10-03T02:23:27.275Z,58.80
2022-10-03T02:26:21.623Z,58.70
2022-10-03T02:29:24.756Z,58.80
2022-10-03T02:32:30.674Z,58.10
2022-10-03T02:36:01.966Z,60.00
2022-10-03T02:39:00.021Z,59.70
2022-10-03T02:42:14.694Z,59.10
2022-10-03T02:45:43.402Z,58.80
2022-10-03T02:49:05.652Z,58.30
2022-10-03T02:52:14.190Z,59.60
2022-10-03T02:55:11.948Z,60.50
2022-10-03T02:58:28.552Z,62.20
2022-10-03T03:01:45.568Z,63.00
2022-10-03T03:05:08.466Z,61.50
2022-10-03T03:08:17.551Z,59.70
2022-10-03T03:11:28.387Z,60.60
2022-10-03T03:14:41.748Z,60.20
2022-10-03T03:17:28.168Z,59.20
2022-10-03T03:20:24.970Z,59.50
2022-10-03T03:23:30.002Z,59.60
2022-10-03T03:26:25.284Z,59.40
2022-10-03T03:29:08.614Z,60.10
2022-10-03T03:31:47.807Z,61.20
2022-10-03T03:34:27.776Z,62.00
2022-10-03T03:37:07.253Z,61.30
2022-10-03T03:40:08.079Z,61.50
2022-10-03T03:43:12.292Z,62.30
2022-10-03T03:46:00.776Z,63.00
2022-10-03T03:48:50.490Z,62.80
2022-10-03T03:51:35.104Z,64.00
2022-10-03T03:54:37.980Z,64.20
2022-10-03T03:57:40.270Z,63.00
2022-10-03T04:00:17.453Z,62.30
2022-10-03T04:03:31.814Z,61.20
2022-10-03T04:10:53.747Z,62.00
2022-10-03T04:13:48.095Z,61.40
2022-10-03T04:16:58.711Z,62.00
2022-10-03T04:19:44.303Z,64.10
2022-10-03T04:22:46.529Z,64.80
2022-10-03T04:25:47.296Z,63.40
2022-10-03T04:28:39.827Z,63.00
2022-10-03T04:31:27.916Z,63.40
2022-10-03T04:34:20.323Z,63.00
2022-10-03T04:37:16.526Z,63.20
2022-10-03T04:39:58.738Z,62.40
2022-10-03T04:42:46.392Z,63.10
2022-10-03T04:45:39.892Z,62.00
2022-10-03T04:48:19.534Z,62.00
2022-10-03T04:55:35.352Z,62.30
2022-10-03T04:58:20.472Z,65.10
2022-10-03T05:01:05.926Z,64.80
2022-10-03T05:03:48.447Z,65.00
2022-10-03T05:06:38.212Z,64.20
2022-10-03T05:09:27.686Z,63.40
2022-10-03T05:12:13.270Z,62.40
2022-10-03T05:15:14.586Z,62.70
2022-10-03T05:17:58.735Z,64.00
2022-10-03T05:20:48.524Z,64.80
2022-10-03T05:23:40.160Z,65.60
2022-10-03T05:26:43.982Z,65.10
2022-10-03T05:29:22.714Z,65.60
2022-10-03T05:32:13.745Z,67.70
2022-10-03T05:35:16.366Z,67.20
2022-10-03T05:38:19.224Z,67.90
2022-10-03T05:41:03.393Z,67.50
2022-10-03T05:43:58.198Z,68.60
2022-10-03T05:46:58.184Z,68.00
2022-10-03T05:49:56.048Z,67.20
2022-10-03T05:52:50.462Z,66.10
2022-10-03T05:55:43.923Z,65.30
2022-10-03T05:58:58.243Z,64.70
2022-10-03T06:02:07.179Z,65.70
2022-10-03T06:05:39.594Z,66.50
2022-10-03T06:08:45.950Z,67.00
2022-10-03T06:11:35.858Z,65.30
2022-10-03T06:14:30.217Z,67.50
2022-10-03T06:17:24.508Z,69.10
2022-10-03T06:20:12.304Z,68.00
2022-10-03T06:23:16.846Z,68.60
2022-10-03T06:26:39.333Z,68.00
2022-10-03T06:30:05.687Z,66.20
2022-10-03T06:33:27.331Z,65.20
2022-10-03T06:36:33.641Z,67.30
2022-10-03T06:40:14.676Z,66.00
2022-10-03T06:43:34.596Z,65.90
2022-10-03T06:51:04.217Z,65.70
2022-10-03T06:54:39.923Z,68.10
2022-10-03T06:57:32.886Z,68.70
2022-10-03T07:00:20.224Z,70.40
2022-10-03T07:03:40.913Z,70.30
2022-10-03T07:07:07.484Z,71.00
2022-10-03T07:10:20.426Z,70.30
2022-10-03T07:13:35.235Z,70.00
2022-10-03T07:16:58.392Z,70.70
2022-10-03T07:20:08.601Z,68.60
2022-10-03T07:23:25.668Z,69.40
2022-10-03T07:26:56.756Z,69.20
2022-10-03T07:30:08.277Z,70.70
2022-10-03T07:33:27.725Z,70.20
2022-10-03T07:37:08.925Z,70.00
2022-10-03T07:40:22.667Z,70.20
2022-10-03T07:43:31.042Z,68.80
2022-10-03T07:46:45.960Z,67.80
2022-10-03T07:54:30.174Z,67.10
2022-10-03T07:57:32.754Z,67.00
2022-10-03T08:00:24.414Z,66.80
2022-10-03T08:03:57.559Z,65.60
2022-10-03T08:11:26.016Z,64.90
2022-10-03T08:14:17.692Z,66.10
2022-10-03T08:18:26.970Z,64.80
2022-10-03T08:20:59.732Z,65.00
2022-10-03T08:24:15.819Z,66.30
2022-10-03T08:27:27.296Z,67.50
2022-10-03T08:30:27.818Z,66.20
2022-10-03T08:38:23.888Z,64.70
2022-10-03T08:41:44.096Z,65.10
2022-10-03T08:45:03.969Z,66.20
2022-10-03T08:48:13.797Z,67.00
2022-10-03T08:51:04.321Z,66.60
2022-10-03T08:54:27.480Z,65.60
2022-10-03T08:57:25.634Z,65.80
2022-10-03T09:00:12.328Z,67.00
2022-10-03T09:03:59.257Z,68.40
2022-10-03T09:07:24.108Z,67.40
2022-10-03T09:10:28.336Z,67.20
2022-10-03T09:13:42.192Z,67.90
2022-10-03T09:25:41.621Z,66.10
2022-10-03T09:29:20.228Z,66.30
2022-10-03T09:32:44.586Z,66.20
2022-10-03T09:35:48.376Z,65.50
2022-10-03T09:39:22.996Z,66.40
2022-10-03T09:42:47.933Z,67.00
2022-10-03T09:45:36.968Z,65.90
2022-10-03T09:49:03.606Z,67.30
2022-10-03T09:57:01.643Z,68.50
2022-10-03T09:59:56.529Z,67.50
2022-10-03T10:03:04.422Z,66.90
2022-10-03T10:06:09.249Z,68.40
2022-10-03T10:09:22.006Z,67.40
2022-10-03T10:12:37.956Z,68.00
2022-10-03T10:16:01.803Z,71.70
2022-10-03T10:19:13.344Z,69.80
2022-10-03T10:22:26.009Z,70.00
2022-10-03T10:25:26.730Z,70.80
2022-10-03T10:28:36.424Z,71.00
2022-10-03T10:31:58.038Z,69.10
2022-10-03T10:35:30.204Z,70.10
2022-10-03T10:38:28.240Z,71.40
2022-10-03T10:41:53.637Z,70.70
2022-10-03T10:46:06.172Z,70.00
2022-10-03T10:49:47.072Z,67.20
2022-10-03T10:52:50.558Z,68.60
2022-10-03T10:56:19.048Z,69.90
2022-10-03T11:04:35.912Z,68.80
2022-10-03T11:07:54.161Z,69.40
2022-10-03T11:10:37.727Z,67.40
2022-10-03T11:14:03.440Z,68.00
2022-10-03T11:17:24.000Z,66.10
2022-10-03T11:20:51.463Z,64.20
2022-10-03T11:24:16.683Z,63.90
2022-10-03T11:27:44.164Z,65.30
2022-10-03T11:31:14.167Z,62.00
2022-10-03T11:34:34.296Z,58.80
2022-10-03T11:37:16.651Z,58.10
2022-10-03T11:39:58.889Z,56.50
2022-10-03T11:42:51.499Z,57.20
2022-10-03T11:45:33.292Z,57.20
2022-10-03T11:48:30.769Z,55.20
2022-10-03T11:51:08.115Z,55.20
2022-10-03T11:53:49.806Z,53.60
2022-10-03T11:56:41.042Z,53.80
2022-10-03T11:59:35.244Z,55.10
2022-10-03T12:02:17.773Z,55.10
2022-10-03T12:04:58.788Z,54.70
2022-10-03T12:08:04.637Z,54.70
2022-10-03T12:11:02.880Z,54.60
2022-10-03T12:15:11.321Z,54.60
2022-10-03T12:17:49.983Z,54.30
2022-10-03T12:20:28.756Z,53.50
2022-10-03T12:23:09.734Z,53.00
2022-10-03T12:25:44.882Z,53.60
2022-10-03T12:28:23.072Z,53.10
2022-10-03T12:31:01.360Z,51.50
2022-10-03T12:33:51.304Z,52.90
2022-10-03T12:38:03.294Z,52.00
2022-10-03T12:40:38.822Z,51.70
2022-10-03T12:43:34.378Z,50.90
2022-10-03T12:46:15.034Z,50.30
2022-10-03T12:48:56.189Z,49.50
2022-10-03T12:51:48.433Z,48.70
2022-10-03T12:54:41.136Z,50.10
2022-10-03T12:57:49.245Z,50.80
2022-10-03T13:00:28.284Z,51.30
2022-10-03T13:03:26.847Z,51.30
2022-10-03T13:07:03.333Z,51.30
2022-10-03T13:10:03.243Z,50.70
2022-10-03T13:14:10.188Z,51.10
2022-10-03T13:16:51.091Z,51.40
2022-10-03T13:19:27.249Z,49.90
2022-10-03T13:22:14.129Z,49.20
2022-10-03T13:24:53.837Z,50.00
2022-10-03T13:27:36.344Z,50.10
2022-10-03T13:30:14.976Z,49.00
2022-10-03T13:32:51.346Z,49.20
2022-10-03T13:35:54.169Z,46.70
2022-10-03T13:38:55.228Z,47.10
2022-10-03T13:41:34.884Z,47.10
2022-10-03T13:44:10.885Z,47.00
2022-10-03T13:46:53.442Z,47.40
2022-10-03T16:03:03.358Z,73.40
2022-10-03T16:05:32.232Z,55.80
2022-10-03T16:08:08.743Z,54.00
2022-10-03T16:10:43.409Z,53.40
2022-10-03T16:13:29.967Z,52.00
2022-10-03T16:16:19.908Z,50.70
2022-10-03T16:18:56.802Z,49.20
2022-10-03T16:21:47.118Z,48.90
2022-10-03T16:24:31.590Z,47.90
2022-10-03T16:27:16.879Z,46.80
2022-10-03T16:29:54.983Z,47.70
2022-10-03T16:32:28.231Z,47.60
2022-10-03T16:35:03.398Z,46.80
2022-10-03T16:37:33.272Z,46.80
2022-10-03T16:40:05.505Z,47.00
2022-10-03T16:42:43.996Z,47.60
2022-10-03T16:45:26.400Z,48.00
2022-10-03T16:48:18.296Z,50.50
2022-10-03T16:50:54.418Z,52.00
2022-10-03T16:53:24.404Z,52.40
2022-10-03T16:56:00.472Z,52.20
2022-10-03T16:58:34.300Z,53.20
2022-10-03T17:01:26.453Z,54.30
2022-10-03T17:04:03.831Z,55.50
2022-10-03T17:06:39.088Z,55.00
2022-10-03T17:09:22.684Z,55.30
2022-10-03T17:11:58.312Z,55.30
2022-10-03T17:14:36.633Z,54.80
2022-10-03T17:17:17.093Z,54.60
2022-10-03T17:19:58.378Z,55.50
2022-10-03T17:22:37.736Z,55.80
2022-10-03T17:25:35.085Z,55.60
2022-10-03T17:28:07.513Z,55.30
2022-10-03T17:30:46.134Z,54.70
2022-10-03T17:33:23.584Z,53.80
2022-10-03T17:36:08.310Z,54.40
2022-10-03T17:38:52.651Z,55.00
2022-10-03T17:41:28.368Z,55.60
2022-10-03T17:44:20.894Z,56.60
2022-10-03T17:47:04.128Z,57.10
2022-10-03T17:49:52.415Z,57.00
2022-10-03T17:52:24.569Z,55.60
2022-10-03T17:54:59.659Z,56.00
2022-10-03T17:57:37.529Z,56.00
2022-10-03T18:00:21.200Z,55.80
2022-10-03T18:03:02.187Z,55.60
2022-10-03T18:05:37.713Z,54.90
2022-10-03T18:08:14.138Z,55.60
2022-10-03T18:10:52.339Z,56.00
2022-10-03T18:13:29.576Z,55.80
2022-10-03T18:16:22.411Z,54.90
2022-10-03T18:19:12.059Z,54.40
2022-10-03T18:22:09.598Z,54.40
2022-10-03T18:25:24.562Z,54.90
2022-10-03T18:28:21.150Z,54.40
2022-10-03T18:30:57.654Z,55.50
2022-10-03T18:33:33.517Z,55.10
2022-10-03T18:36:12.546Z,55.80
2022-10-03T18:38:46.303Z,55.90
2022-10-03T18:41:19.248Z,55.60
2022-10-03T18:43:58.869Z,55.90
2022-10-03T18:46:36.583Z,55.70
2022-10-03T18:49:35.169Z,55.10
2022-10-03T18:52:18.356Z,54.20
2022-10-03T18:55:00.655Z,54.60
2022-10-03T18:57:38.938Z,54.40
2022-10-03T19:00:20.224Z,54.40
2022-10-03T19:02:55.401Z,53.90
2022-10-03T19:05:31.855Z,54.30
2022-10-03T19:08:11.460Z,55.10
2022-10-03T19:10:46.512Z,55.40
2022-10-03T19:13:31.241Z,54.90
2022-10-03T19:16:36.841Z,54.60
2022-10-03T19:19:13.765Z,54.00
2022-10-03T19:21:44.033Z,53.70
2022-10-03T19:24:34.531Z,53.60
2022-10-03T19:27:16.995Z,53.50
2022-10-03T19:29:51.155Z,54.50
2022-10-03T19:32:30.298Z,53.40
2022-10-03T19:35:05.776Z,53.20
2022-10-03T19:37:45.926Z,53.30
2022-10-03T19:40:32.077Z,55.10
2022-10-03T19:43:44.623Z,54.90
2022-10-03T19:46:41.180Z,55.40
2022-10-03T19:49:46.698Z,56.80
2022-10-03T19:52:41.627Z,56.20
2022-10-03T19:55:16.430Z,57.50
2022-10-03T19:57:51.938Z,58.60
2022-10-03T20:00:29.262Z,58.60
2022-10-03T20:03:13.961Z,57.80
2022-10-03T20:06:07.287Z,56.90
2022-10-03T20:08:45.672Z,56.70
2022-10-03T20:11:39.892Z,55.60
2022-10-03T20:14:16.262Z,55.60
2022-10-03T20:16:49.903Z,55.60
2022-10-03T20:19:24.917Z,56.20
2022-10-03T20:21:57.834Z,56.30
2022-10-03T20:24:35.485Z,56.70
2022-10-03T20:27:25.685Z,57.10
2022-10-03T20:30:08.306Z,58.20
2022-10-03T20:32:44.421Z,59.40
2022-10-03T20:35:20.552Z,59.50
2022-10-03T20:37:57.382Z,61.10
2022-10-03T20:40:35.856Z,61.50
2022-10-03T20:43:41.817Z,61.40
2022-10-03T20:46:25.736Z,60.30
2022-10-03T20:49:31.660Z,59.90
2022-10-03T20:52:05.433Z,60.30
2022-10-03T20:54:50.066Z,59.20
2022-10-03T20:57:24.545Z,58.20
2022-10-03T21:00:04.517Z,57.80
2022-10-03T21:02:43.286Z,57.80
2022-10-03T21:05:23.025Z,58.80
2022-10-03T21:07:57.462Z,58.90
2022-10-03T21:10:33.000Z,58.00
2022-10-03T21:13:06.189Z,57.90
2022-10-03T21:15:47.579Z,57.70
2022-10-03T21:18:23.752Z,57.70
2022-10-03T21:21:06.230Z,57.40
2022-10-03T21:23:44.743Z,57.80
2022-10-03T21:26:21.498Z,58.30
2022-10-03T21:28:50.349Z,58.80
2022-10-03T21:31:43.133Z,59.10
2022-10-03T21:34:26.442Z,58.90
2022-10-03T21:37:12.263Z,58.10
2022-10-03T21:40:04.262Z,58.50
2022-10-03T21:42:46.151Z,59.00
2022-10-03T21:45:31.820Z,58.80
2022-10-03T21:48:11.255Z,58.30
2022-10-03T21:50:53.770Z,59.40
2022-10-03T21:53:38.746Z,60.00
2022-10-03T21:56:35.997Z,59.40
2022-10-03T21:59:37.324Z,58.70
2022-10-03T22:02:20.115Z,57.80
2022-10-03T22:04:57.585Z,57.20
2022-10-03T22:07:38.732Z,56.90
2022-10-03T22:10:21.422Z,57.70
2022-10-03T22:12:54.553Z,57.40
2022-10-03T22:15:38.656Z,57.70
2022-10-03T22:18:14.796Z,58.60
2022-10-03T22:20:57.646Z,59.00
2022-10-03T22:23:42.749Z,58.70
2022-10-03T22:26:24.185Z,57.80
2022-10-03T22:29:05.317Z,57.40
2022-10-03T22:31:46.016Z,57.00
2022-10-03T22:34:34.003Z,57.10
2022-10-03T22:37:03.707Z,56.50
2022-10-03T22:39:36.830Z,57.60
2022-10-03T22:42:08.013Z,57.90
2022-10-03T22:44:43.317Z,58.40
2022-10-03T22:47:20.127Z,58.00
2022-10-03T22:49:58.715Z,58.70
2022-10-03T22:52:33.293Z,59.30
2022-10-03T22:55:05.544Z,58.60
2022-10-03T22:57:36.094Z,57.80
2022-10-03T23:00:10.635Z,57.30
2022-10-03T23:02:49.877Z,56.90
2022-10-03T23:05:40.237Z,56.50
2022-10-03T23:08:22.079Z,57.90
2022-10-03T23:10:59.812Z,58.80
2022-10-03T23:13:38.765Z,58.90
2022-10-03T23:16:28.866Z,59.10
2022-10-03T23:19:18.108Z,59.50
2022-10-03T23:21:49.328Z,60.80
2022-10-03T23:24:28.434Z,61.70
2022-10-03T23:27:43.152Z,61.60
2022-10-03T23:30:50.846Z,61.60
2022-10-03T23:33:56.521Z,60.50
2022-10-03T23:36:26.466Z,60.60
2022-10-03T23:39:02.320Z,60.10
2022-10-03T23:41:56.361Z,60.30
2022-10-03T23:44:49.481Z,60.40
2022-10-03T23:47:24.696Z,60.20
2022-10-03T23:49:55.526Z,60.70
2022-10-03T23:52:31.799Z,61.40
2022-10-03T23:55:08.118Z,60.20
2022-10-03T23:57:43.172Z,59.90
